createdAt,value
2022-12-31T00:02:28.590Z,44.40
2022-12-31T00:04:55.819Z,50.97
2022-12-31T00:07:22.508Z,46.25
2022-12-31T00:09:49.205Z,50.47
2022-12-31T00:12:15.840Z,44.60
2022-12-31T00:14:42.517Z,44.10
2022-12-31T00:17:12.344Z,43.22
2022-12-31T00:19:51.141Z,42.15
2022-12-31T00:22:17.948Z,45.90
2022-12-31T00:24:44.645Z,43.17
2022-12-31T00:27:12.501Z,43.85
2022-12-31T00:29:39.272Z,51.20
2022-12-31T00:32:06.167Z,45.10
2022-12-31T00:34:32.932Z,46.15
2022-12-31T00:37:02.133Z,45.35
2022-12-31T00:39:28.926Z,36.92
2022-12-31T00:41:55.940Z,40.28
2022-12-31T00:44:22.871Z,46.63
2022-12-31T00:46:49.832Z,39.38
2022-12-31T00:49:19.609Z,42.17
2022-12-31T00:51:46.240Z,35.03
2022-12-31T00:54:15.775Z,33.38
2022-12-31T00:56:42.601Z,39.95
2022-12-31T00:59:09.592Z,40.38
2022-12-31T01:01:47.631Z,34.88
2022-12-31T01:04:20.548Z,41.60
2022-12-31T01:06:48.080Z,38.45
2022-12-31T01:09:18.226Z,42.47
2022-12-31T01:11:45.158Z,40.92
2022-12-31T01:14:17.642Z,41.97
2022-12-31T01:16:58.924Z,41.97
2022-12-31T01:19:28.550Z,45.07
2022-12-31T01:21:56.969Z,39.45
2022-12-31T01:24:24.178Z,49.42
2022-12-31T01:26:53.367Z,42.42
2022-12-31T01:29:20.031Z,44.60
2022-12-31T01:31:52.626Z,45.92
2022-12-31T01:34:19.426Z,45.40
2022-12-31T01:36:48.538Z,53.10
2022-12-31T01:39:18.288Z,40.88
2022-12-31T01:41:52.391Z,47.83
2022-12-31T01:44:25.046Z,50.78
2022-12-31T01:46:57.617Z,48.47
2022-12-31T01:49:35.309Z,51.33
2022-12-31T01:52:12.353Z,44.60
2022-12-31T01:54:44.967Z,56.60
2022-12-31T01:57:14.526Z,46.20
2022-12-31T01:59:42.631Z,46.03
2022-12-31T02:02:10.117Z,57.63
2022-12-31T02:04:40.109Z,59.33
2022-12-31T02:07:09.030Z,53.85
2022-12-31T02:09:39.405Z,47.20
2022-12-31T02:12:12.285Z,55.83
2022-12-31T02:14:49.770Z,57.05
2022-12-31T02:17:35.406Z,55.13
2022-12-31T02:20:33.041Z,56.80
2022-12-31T02:23:14.002Z,61.35
2022-12-31T02:26:25.931Z,54.53
2022-12-31T02:29:23.007Z,61.97
2022-12-31T02:32:00.280Z,55.35
2022-12-31T02:34:38.947Z,65.93
2022-12-31T02:37:12.097Z,65.32
2022-12-31T02:39:40.717Z,65.80
2022-12-31T02:42:13.012Z,64.38
2022-12-31T02:44:41.990Z,68.80
2022-12-31T02:47:31.296Z,68.05
2022-12-31T02:50:03.704Z,66.45
2022-12-31T02:53:01.207Z,60.03
2022-12-31T02:55:50.762Z,56.08
2022-12-31T02:58:27.055Z,67.65
2022-12-31T03:00:58.484Z,61.58
2022-12-31T03:03:27.336Z,49.95
2022-12-31T03:06:06.089Z,62.53
2022-12-31T03:08:33.987Z,62.28
2022-12-31T03:11:00.668Z,51.33
2022-12-31T03:13:27.293Z,61.97
2022-12-31T03:15:59.594Z,68.28
2022-12-31T03:18:26.284Z,59.83
2022-12-31T03:20:54.377Z,53.53
2022-12-31T03:23:31.368Z,67.40
2022-12-31T03:25:59.273Z,63.72
2022-12-31T03:28:30.232Z,62.15
2022-12-31T03:31:01.524Z,60.58
2022-12-31T03:33:41.904Z,65.97
2022-12-31T03:36:12.007Z,61.05
2022-12-31T03:38:39.072Z,54.22
2022-12-31T03:41:06.591Z,53.35
2022-12-31T03:43:33.292Z,62.60
2022-12-31T03:46:02.241Z,62.03
2022-12-31T03:48:29.884Z,57.92
2022-12-31T03:50:56.620Z,56.28
2022-12-31T03:53:27.138Z,67.28
2022-12-31T03:55:59.043Z,68.18
2022-12-31T03:58:25.840Z,58.33
2022-12-31T04:00:58.245Z,59.67
2022-12-31T04:03:25.038Z,60.67
2022-12-31T04:05:57.750Z,61.03
2022-12-31T04:08:24.770Z,58.42
2022-12-31T04:10:53.907Z,68.07
2022-12-31T04:13:20.626Z,62.95
2022-12-31T04:15:50.414Z,60.05
2022-12-31T04:18:19.386Z,58.15
2022-12-31T04:20:49.174Z,54.53
2022-12-31T04:23:15.854Z,48.35
2022-12-31T04:25:42.627Z,54.08
2022-12-31T04:28:09.310Z,53.80
2022-12-31T04:30:35.994Z,52.05
2022-12-31T04:33:02.723Z,54.53
2022-12-31T04:35:29.378Z,49.55
2022-12-31T04:37:56.193Z,52.25
2022-12-31T04:40:22.843Z,50.70
2022-12-31T04:42:49.557Z,49.08
2022-12-31T04:45:16.303Z,50.08
2022-12-31T04:47:46.954Z,47.80
2022-12-31T04:50:13.589Z,49.58
2022-12-31T04:52:42.951Z,51.88
2022-12-31T04:55:11.512Z,47.35
2022-12-31T04:57:39.726Z,49.03
2022-12-31T05:00:07.479Z,46.20
2022-12-31T05:02:34.376Z,45.72
2022-12-31T05:05:01.156Z,47.72
2022-12-31T05:07:30.085Z,42.38
2022-12-31T05:09:59.707Z,45.88
2022-12-31T05:12:26.604Z,45.97
2022-12-31T05:14:53.902Z,43.90
2022-12-31T05:17:23.990Z,46.58
2022-12-31T05:19:50.705Z,42.03
2022-12-31T05:22:17.420Z,42.38
2022-12-31T05:24:44.150Z,44.47
2022-12-31T05:27:12.445Z,46.63
2022-12-31T05:29:47.492Z,40.95
2022-12-31T05:32:15.571Z,47.28
2022-12-31T05:34:44.235Z,38.92
2022-12-31T05:37:10.868Z,43.75
2022-12-31T05:39:37.541Z,43.88
2022-12-31T05:42:04.299Z,38.83
2022-12-31T05:44:31.028Z,40.25
2022-12-31T05:47:03.756Z,41.65
2022-12-31T05:49:30.552Z,38.95
2022-12-31T05:51:58.439Z,35.60
2022-12-31T05:54:25.245Z,37.15
2022-12-31T05:56:51.998Z,36.03
2022-12-31T05:59:18.824Z,37.22
2022-12-31T06:01:45.547Z,35.22
2022-12-31T06:04:13.156Z,34.30
2022-12-31T06:06:41.792Z,31.35
2022-12-31T06:09:08.936Z,34.42
2022-12-31T06:11:35.828Z,31.85
2022-12-31T06:14:07.675Z,34.80
2022-12-31T06:16:35.653Z,31.77
2022-12-31T06:19:02.816Z,30.88
2022-12-31T06:21:30.011Z,33.22
2022-12-31T06:23:59.860Z,31.88
2022-12-31T06:26:27.591Z,35.30
2022-12-31T06:28:54.390Z,34.55
2022-12-31T06:31:21.097Z,33.47
2022-12-31T06:33:50.467Z,35.65
2022-12-31T06:36:17.491Z,30.90
2022-12-31T06:38:44.603Z,36.63
2022-12-31T06:41:14.091Z,31.92
2022-12-31T06:43:41.641Z,36.72
2022-12-31T06:46:11.375Z,32.03
2022-12-31T06:48:40.388Z,30.98
2022-12-31T06:51:17.491Z,33.58
2022-12-31T06:53:46.216Z,32.08
2022-12-31T06:56:31.292Z,31.45
2022-12-31T06:59:00.553Z,34.78
2022-12-31T07:01:45.917Z,33.22
2022-12-31T07:04:37.238Z,35.67
2022-12-31T07:07:11.645Z,36.20
2022-12-31T07:10:29.049Z,33.60
2022-12-31T07:13:17.525Z,33.75
2022-12-31T07:16:22.690Z,32.97
2022-12-31T07:19:20.718Z,36.13
2022-12-31T07:21:51.509Z,32.83
2022-12-31T07:24:23.073Z,37.50
2022-12-31T07:27:17.317Z,41.50
2022-12-31T07:30:09.752Z,38.15
2022-12-31T07:35:54.588Z,32.03
2022-12-31T07:38:51.452Z,30.80
2022-12-31T07:41:27.092Z,33.50
2022-12-31T07:44:07.114Z,39.53
2022-12-31T07:46:52.320Z,32.90
2022-12-31T07:49:19.361Z,29.40
2022-12-31T07:51:46.398Z,27.55
2022-12-31T07:54:14.434Z,28.10
2022-12-31T07:56:42.553Z,31.60
2022-12-31T07:59:27.714Z,40.22
2022-12-31T08:02:22.765Z,28.52
2022-12-31T08:04:55.222Z,32.65
2022-12-31T08:07:35.030Z,35.00
2022-12-31T08:10:04.272Z,32.10
2022-12-31T08:12:34.224Z,30.55
2022-12-31T08:15:01.171Z,34.67
2022-12-31T08:17:29.177Z,31.42
2022-12-31T08:19:56.141Z,33.60
2022-12-31T08:22:44.741Z,32.42
2022-12-31T08:25:32.799Z,31.38
2022-12-31T08:28:26.434Z,31.50
2022-12-31T08:31:25.641Z,34.05
2022-12-31T08:34:20.509Z,23.98
2022-12-31T08:37:07.755Z,32.20
2022-12-31T08:39:53.629Z,31.98
2022-12-31T08:42:37.777Z,30.33
2022-12-31T08:45:43.315Z,29.80
2022-12-31T08:48:23.102Z,34.28
2022-12-31T08:50:50.024Z,30.50
2022-12-31T08:53:17.100Z,27.08
2022-12-31T08:55:46.252Z,30.73
2022-12-31T08:58:29.543Z,32.75
2022-12-31T09:00:59.325Z,29.52
2022-12-31T09:03:49.666Z,35.75
2022-12-31T09:06:38.205Z,39.97
2022-12-31T09:09:27.878Z,38.78
2022-12-31T09:12:18.297Z,38.20
2022-12-31T09:14:48.690Z,38.60
2022-12-31T09:17:20.236Z,35.85
2022-12-31T09:19:52.383Z,41.22
2022-12-31T09:22:22.185Z,44.10
2022-12-31T09:24:49.536Z,48.17
2022-12-31T09:27:28.824Z,37.40
2022-12-31T09:30:04.675Z,45.75
2022-12-31T09:33:01.991Z,48.33
2022-12-31T09:35:28.643Z,47.17
2022-12-31T09:38:19.660Z,44.90
2022-12-31T09:41:16.215Z,42.00
2022-12-31T09:43:55.968Z,44.53
2022-12-31T09:46:39.055Z,51.17
2022-12-31T09:49:44.098Z,52.72
2022-12-31T09:52:40.038Z,50.38
2022-12-31T09:55:09.557Z,42.10
2022-12-31T09:58:08.982Z,52.60
2022-12-31T10:00:46.147Z,57.45
2022-12-31T10:03:34.858Z,58.17
2022-12-31T10:06:25.803Z,51.22
2022-12-31T10:09:16.981Z,46.22
2022-12-31T10:11:46.275Z,51.20
2022-12-31T10:14:24.728Z,45.72
2022-12-31T10:16:54.171Z,46.33
2022-12-31T10:19:32.424Z,47.90
2022-12-31T10:22:24.114Z,49.30
2022-12-31T10:25:08.113Z,46.42
2022-12-31T10:27:55.773Z,41.67
2022-12-31T10:30:24.172Z,52.63
2022-12-31T10:33:06.790Z,42.70
2022-12-31T10:35:43.484Z,39.58
2022-12-31T10:38:47.604Z,45.15
2022-12-31T10:41:46.744Z,44.55
2022-12-31T10:44:28.625Z,43.47
2022-12-31T10:47:16.922Z,49.05
2022-12-31T10:49:58.522Z,45.15
2022-12-31T10:52:46.710Z,46.97
2022-12-31T10:55:26.485Z,43.80
2022-12-31T10:58:17.811Z,46.30
2022-12-31T11:01:13.443Z,43.15
2022-12-31T11:03:51.513Z,46.35
2022-12-31T11:06:36.275Z,43.05
2022-12-31T11:09:31.297Z,46.08
2022-12-31T11:12:26.339Z,44.10
2022-12-31T11:15:21.806Z,41.33
2022-12-31T11:18:06.745Z,43.25
2022-12-31T11:20:57.870Z,47.53
2022-12-31T11:23:51.903Z,40.50
2022-12-31T11:26:56.233Z,44.08
2022-12-31T11:30:04.488Z,42.22
2022-12-31T11:32:36.472Z,41.30
2022-12-31T11:38:09.231Z,43.90
2022-12-31T11:41:01.443Z,46.20
2022-12-31T11:43:52.471Z,39.72
2022-12-31T11:46:28.265Z,35.63
2022-12-31T11:49:14.765Z,37.78
2022-12-31T11:52:21.547Z,39.50
2022-12-31T11:55:12.706Z,40.42
2022-12-31T11:57:44.170Z,41.08
2022-12-31T12:00:25.820Z,38.95
2022-12-31T12:03:04.112Z,38.38
2022-12-31T12:05:32.135Z,39.85
2022-12-31T12:07:58.809Z,40.60
2022-12-31T12:10:37.176Z,36.65
2022-12-31T12:13:33.406Z,34.30
2022-12-31T12:16:03.378Z,36.85
2022-12-31T12:18:54.476Z,36.38
2022-12-31T12:21:24.138Z,36.65
2022-12-31T12:23:58.209Z,35.20
2022-12-31T12:26:45.085Z,38.42
2022-12-31T12:29:33.559Z,35.85
2022-12-31T12:32:23.425Z,36.72
2022-12-31T12:34:53.911Z,35.55
2022-12-31T12:37:34.882Z,39.50
2022-12-31T12:40:20.262Z,37.97
2022-12-31T12:42:48.677Z,36.28
2022-12-31T12:45:19.715Z,33.88
2022-12-31T12:47:48.876Z,30.95
2022-12-31T12:50:21.996Z,34.38
2022-12-31T12:53:31.698Z,35.67
2022-12-31T12:56:28.561Z,36.67
2022-12-31T12:59:21.097Z,41.22
2022-12-31T13:02:33.522Z,32.83
2022-12-31T13:05:33.981Z,38.08
2022-12-31T13:08:20.849Z,35.70
2022-12-31T13:11:09.980Z,37.60
2022-12-31T13:14:01.585Z,38.40
2022-12-31T13:16:47.251Z,32.10
2022-12-31T13:19:45.096Z,33.30
2022-12-31T13:22:25.000Z,41.17
2022-12-31T13:25:07.543Z,34.92
2022-12-31T13:27:45.703Z,34.42
2022-12-31T13:30:20.111Z,40.65
2022-12-31T13:32:52.726Z,42.33
2022-12-31T13:35:30.669Z,39.25
2022-12-31T13:38:23.840Z,43.17
2022-12-31T13:41:39.355Z,36.10
2022-12-31T13:44:08.601Z,36.60
2022-12-31T13:47:00.934Z,40.90
2022-12-31T13:52:14.796Z,36.28
2022-12-31T13:54:52.170Z,40.00
2022-12-31T13:57:42.719Z,43.92
2022-12-31T14:00:21.367Z,42.38
2022-12-31T14:02:52.778Z,40.15
2022-12-31T14:05:37.476Z,43.88
2022-12-31T14:08:06.956Z,42.30
2022-12-31T14:10:51.620Z,47.10
2022-12-31T14:13:38.765Z,43.80
2022-12-31T14:16:54.054Z,45.58
2022-12-31T14:19:51.141Z,39.83
2022-12-31T14:22:34.271Z,44.13
2022-12-31T14:25:04.094Z,46.83
2022-12-31T14:27:34.930Z,43.60
2022-12-31T14:30:06.197Z,37.63
2022-12-31T14:32:45.395Z,33.95
2022-12-31T14:35:36.895Z,44.42
2022-12-31T14:38:20.255Z,41.80
2022-12-31T14:41:12.027Z,43.50
2022-12-31T14:44:08.726Z,49.38
2022-12-31T14:47:15.675Z,43.65
2022-12-31T14:50:00.301Z,32.92
2022-12-31T14:52:47.663Z,45.25
2022-12-31T14:55:16.890Z,53.83
2022-12-31T14:58:25.295Z,44.67
2022-12-31T15:00:35.852Z,43.05
2022-12-31T15:03:23.322Z,44.92
2022-12-31T15:05:54.336Z,47.45
2022-12-31T15:08:31.433Z,50.08
2022-12-31T15:10:58.018Z,45.30
2022-12-31T15:13:27.363Z,44.90
2022-12-31T15:16:15.872Z,42.05
2022-12-31T15:18:42.486Z,46.92
2022-12-31T15:21:13.597Z,48.72
2022-12-31T15:23:42.154Z,52.70
2022-12-31T15:26:23.196Z,50.28
2022-12-31T15:29:05.867Z,45.75
2022-12-31T15:31:35.942Z,49.15
2022-12-31T15:34:07.935Z,50.50
2022-12-31T15:39:11.796Z,50.83
2022-12-31T15:42:35.693Z,48.10
2022-12-31T15:44:44.364Z,52.33
2022-12-31T15:47:45.093Z,51.13
2022-12-31T15:50:19.089Z,53.08
2022-12-31T15:52:54.079Z,61.65
2022-12-31T15:55:27.160Z,52.00
2022-12-31T15:58:18.614Z,56.03
2022-12-31T16:01:15.028Z,61.57
2022-12-31T16:03:52.175Z,62.45
2022-12-31T16:06:18.878Z,58.33
2022-12-31T16:08:48.388Z,57.30
2022-12-31T16:11:15.843Z,54.90
2022-12-31T16:13:46.024Z,64.57
2022-12-31T16:16:28.690Z,61.08
2022-12-31T16:18:56.554Z,58.78
2022-12-31T16:21:36.243Z,68.28
2022-12-31T16:24:26.142Z,69.68
2022-12-31T16:27:00.111Z,45.72
2022-12-31T16:29:30.133Z,64.93
2022-12-31T16:31:59.695Z,60.92
2022-12-31T16:34:27.665Z,61.35
2022-12-31T16:37:00.240Z,58.10
2022-12-31T16:40:01.056Z,60.97
2022-12-31T16:42:29.138Z,58.72
2022-12-31T16:44:59.111Z,62.50
2022-12-31T16:47:37.442Z,60.72
2022-12-31T16:50:24.861Z,65.97
2022-12-31T16:52:59.424Z,70.57
2022-12-31T16:55:29.536Z,57.22
2022-12-31T16:58:22.468Z,61.50
2022-12-31T17:00:50.961Z,63.20
2022-12-31T17:03:21.317Z,58.15
2022-12-31T17:06:30.377Z,58.28
2022-12-31T17:08:59.723Z,56.47
2022-12-31T17:11:45.158Z,64.18
2022-12-31T17:14:13.478Z,64.03
2022-12-31T17:16:57.760Z,61.78
2022-12-31T17:19:50.404Z,65.53
2022-12-31T17:22:36.407Z,50.00
2022-12-31T17:25:15.679Z,59.72
2022-12-31T17:27:55.908Z,60.38
2022-12-31T17:30:44.845Z,66.22
2022-12-31T17:33:14.238Z,70.63
2022-12-31T17:35:45.360Z,65.60
2022-12-31T17:38:18.010Z,67.77
2022-12-31T17:40:51.289Z,68.55
2022-12-31T17:43:21.194Z,68.57
2022-12-31T17:45:51.034Z,76.43
2022-12-31T17:48:21.013Z,68.55
2022-12-31T17:50:56.344Z,64.47
2022-12-31T17:53:23.258Z,71.20
2022-12-31T17:56:03.504Z,71.00
2022-12-31T17:58:56.583Z,69.25
2022-12-31T18:01:23.976Z,61.22
2022-12-31T18:03:50.765Z,71.72
2022-12-31T18:06:18.399Z,69.18
2022-12-31T18:08:48.741Z,72.93
2022-12-31T18:11:19.571Z,72.55
2022-12-31T18:13:49.434Z,73.70
2022-12-31T18:16:16.858Z,74.22
2022-12-31T18:18:43.632Z,73.82
2022-12-31T18:21:21.861Z,72.15
2022-12-31T18:26:22.050Z,75.20
2022-12-31T18:28:52.461Z,74.57
2022-12-31T18:31:32.208Z,69.93
2022-12-31T18:33:59.349Z,73.63
2022-12-31T18:36:27.831Z,69.53
2022-12-31T18:38:54.573Z,73.38
2022-12-31T18:41:34.448Z,68.95
2022-12-31T18:44:01.091Z,71.65
2022-12-31T18:46:28.364Z,70.47
2022-12-31T18:48:55.063Z,68.68
2022-12-31T18:51:31.377Z,68.85
2022-12-31T18:54:00.006Z,70.03
2022-12-31T18:56:26.949Z,69.70
2022-12-31T18:58:58.499Z,70.90
2022-12-31T19:01:38.688Z,70.78
2022-12-31T19:04:13.797Z,64.90
2022-12-31T19:06:40.815Z,71.80
2022-12-31T19:09:30.877Z,76.47
2022-12-31T19:11:57.904Z,73.28
2022-12-31T19:14:25.741Z,73.53
2022-12-31T19:16:56.832Z,73.95
2022-12-31T19:19:23.577Z,80.30
2022-12-31T19:21:50.315Z,82.13
2022-12-31T19:24:31.072Z,82.07
2022-12-31T19:26:57.764Z,81.90
2022-12-31T19:32:10.686Z,83.82
2022-12-31T19:34:39.458Z,84.55
2022-12-31T19:37:06.189Z,74.30
2022-12-31T19:39:32.866Z,74.60
2022-12-31T19:41:59.921Z,68.38
2022-12-31T19:44:26.729Z,69.70
2022-12-31T19:46:53.551Z,73.30
2022-12-31T19:49:20.280Z,82.90
2022-12-31T19:51:46.932Z,75.97
2022-12-31T19:54:13.823Z,75.65
2022-12-31T19:56:43.624Z,65.05
2022-12-31T19:59:10.842Z,84.13
2022-12-31T20:01:37.985Z,79.20
2022-12-31T20:04:05.040Z,74.75
2022-12-31T20:06:31.817Z,76.85
2022-12-31T20:08:58.405Z,79.18
2022-12-31T20:11:25.406Z,75.03
2022-12-31T20:13:55.899Z,77.55
2022-12-31T20:16:25.064Z,82.15
2022-12-31T20:18:51.767Z,74.15
2022-12-31T20:21:21.460Z,89.05
2022-12-31T20:23:52.351Z,64.45
2022-12-31T20:26:22.777Z,70.50
2022-12-31T20:28:53.701Z,72.60
2022-12-31T20:31:25.067Z,59.72
2022-12-31T20:33:55.391Z,74.15
2022-12-31T20:36:22.795Z,75.25
2022-12-31T20:38:49.752Z,77.78
2022-12-31T20:41:20.528Z,73.90
2022-12-31T20:43:50.027Z,65.40
2022-12-31T20:46:22.202Z,72.90
2022-12-31T20:48:52.859Z,71.93
2022-12-31T20:51:20.625Z,69.95
2022-12-31T20:53:51.933Z,70.47
2022-12-31T20:56:18.901Z,71.35
2022-12-31T20:58:53.399Z,72.25
2022-12-31T21:01:24.038Z,71.25
2022-12-31T21:04:05.061Z,72.20
2022-12-31T21:06:33.550Z,82.35
2022-12-31T21:09:02.331Z,77.13
2022-12-31T21:11:29.064Z,82.93
2022-12-31T21:13:59.556Z,80.03
2022-12-31T21:16:27.257Z,81.20
2022-12-31T21:18:54.071Z,79.28
2022-12-31T21:21:21.567Z,76.15
2022-12-31T21:23:48.254Z,85.55
2022-12-31T21:26:14.978Z,77.57
2022-12-31T21:28:45.356Z,77.55
2022-12-31T21:31:14.393Z,88.70
2022-12-31T21:33:45.314Z,81.85
2022-12-31T21:36:17.501Z,80.57
2022-12-31T21:38:46.157Z,80.53
2022-12-31T21:41:18.126Z,86.55
2022-12-31T21:43:44.768Z,90.90
2022-12-31T21:46:11.522Z,88.53
2022-12-31T21:48:38.407Z,96.45
2022-12-31T21:51:10.974Z,92.90
2022-12-31T21:53:37.802Z,84.75
2022-12-31T21:56:08.913Z,83.65
2022-12-31T21:58:47.078Z,86.07
2022-12-31T22:01:22.569Z,84.15
2022-12-31T22:03:49.663Z,82.55
2022-12-31T22:06:24.828Z,93.00
2022-12-31T22:08:56.371Z,90.68
2022-12-31T22:11:26.516Z,97.30
2022-12-31T22:13:54.348Z,99.97
2022-12-31T22:16:22.496Z,103.80
2022-12-31T22:18:50.260Z,103.95
2022-12-31T22:21:20.741Z,101.85
2022-12-31T22:23:53.058Z,93.25
2022-12-31T22:26:26.177Z,102.53
2022-12-31T22:28:55.375Z,102.82
2022-12-31T22:31:23.535Z,105.38
2022-12-31T22:33:53.112Z,95.40
2022-12-31T22:36:23.912Z,108.22
2022-12-31T22:38:54.552Z,109.80
2022-12-31T22:41:22.303Z,114.65
2022-12-31T22:43:51.444Z,111.32
2022-12-31T22:46:20.041Z,116.15
2022-12-31T22:48:47.411Z,114.15
2022-12-31T22:51:15.370Z,113.72
2022-12-31T22:53:42.870Z,113.38
2022-12-31T22:56:11.168Z,111.97
2022-12-31T22:58:44.734Z,112.07
2022-12-31T23:01:26.041Z,108.47
2022-12-31T23:03:57.687Z,115.43
2022-12-31T23:06:27.545Z,114.13
2022-12-31T23:08:54.858Z,125.88
2022-12-31T23:11:21.686Z,111.68
2022-12-31T23:13:51.462Z,132.35
2022-12-31T23:16:22.482Z,139.65
2022-12-31T23:18:52.140Z,167.38
2022-12-31T23:21:18.821Z,158.25
2022-12-31T23:23:45.475Z,175.25
2022-12-31T23:26:12.188Z,179.63
2022-12-31T23:28:38.850Z,233.25
2022-12-31T23:31:06.784Z,229.63
2022-12-31T23:33:33.590Z,289.95
2022-12-31T23:36:07.320Z,300.05
2022-12-31T23:38:45.332Z,288.35
2022-12-31T23:41:14.139Z,284.13
2022-12-31T23:43:44.781Z,281.80
2022-12-31T23:46:12.909Z,290.88
2022-12-31T23:48:41.727Z,267.45
2022-12-31T23:51:09.175Z,287.90
2022-12-31T23:53:39.211Z,283.58
2022-12-31T23:56:20.919Z,281.13
2022-12-31T23:58:54.089Z,258.48
